sensor_id;sensor_type;location;lat;lon;timestamp;P1;durP1;ratioP1;P2;durP2;ratioP2
71513;SDS011;59335;46.652;21.272;2023-03-23T00:00:22;23.30;;;14.90;;
71513;SDS011;59335;46.652;21.272;2023-03-23T00:03:23;24.83;;;15.32;;
71513;SDS011;59335;46.652;21.272;2023-03-23T00:06:27;23.80;;;15.10;;
71513;SDS011;59335;46.652;21.272;2023-03-23T00:09:33;24.40;;;14.93;;
71513;SDS011;59335;46.652;21.272;2023-03-23T00:12:42;24.15;;;14.70;;
71513;SDS011;59335;46.652;21.272;2023-03-23T00:15:50;24.47;;;14.50;;
71513;SDS011;59335;46.652;21.272;2023-03-23T00:18:53;23.05;;;14.43;;
71513;SDS011;59335;46.652;21.272;2023-03-23T00:21:55;24.77;;;15.27;;
71513;SDS011;59335;46.652;21.272;2023-03-23T00:24:56;23.88;;;14.77;;
71513;SDS011;59335;46.652;21.272;2023-03-23T00:27:58;20.60;;;13.35;;
71513;SDS011;59335;46.652;21.272;2023-03-23T00:31:01;21.53;;;14.07;;
71513;SDS011;59335;46.652;21.272;2023-03-23T00:34:04;22.52;;;13.75;;
71513;SDS011;59335;46.652;21.272;2023-03-23T00:37:07;23.15;;;14.38;;
71513;SDS011;59335;46.652;21.272;2023-03-23T00:40:10;23.70;;;14.15;;
71513;SDS011;59335;46.652;21.272;2023-03-23T00:43:12;24.23;;;14.10;;
71513;SDS011;59335;46.652;21.272;2023-03-23T00:46:15;22.73;;;14.23;;
71513;SDS011;59335;46.652;21.272;2023-03-23T00:49:18;22.13;;;13.63;;
71513;SDS011;59335;46.652;21.272;2023-03-23T00:52:21;21.73;;;13.93;;
71513;SDS011;59335;46.652;21.272;2023-03-23T00:55:24;23.85;;;14.68;;
71513;SDS011;59335;46.652;21.272;2023-03-23T00:58:26;25.17;;;14.77;;
71513;SDS011;59335;46.652;21.272;2023-03-23T01:01:28;23.23;;;13.90;;
71513;SDS011;59335;46.652;21.272;2023-03-23T01:04:31;22.15;;;13.40;;
71513;SDS011;59335;46.652;21.272;2023-03-23T01:07:33;21.60;;;13.38;;
71513;SDS011;59335;46.652;21.272;2023-03-23T01:10:36;21.65;;;13.57;;
71513;SDS011;59335;46.652;21.272;2023-03-23T01:13:40;22.92;;;14.30;;
71513;SDS011;59335;46.652;21.272;2023-03-23T01:16:43;21.27;;;14.00;;
71513;SDS011;59335;46.652;21.272;2023-03-23T01:19:46;22.50;;;14.40;;
71513;SDS011;59335;46.652;21.272;2023-03-23T01:22:48;22.48;;;14.50;;
71513;SDS011;59335;46.652;21.272;2023-03-23T01:25:50;21.80;;;14.45;;
71513;SDS011;59335;46.652;21.272;2023-03-23T01:28:51;21.80;;;13.93;;
71513;SDS011;59335;46.652;21.272;2023-03-23T01:31:53;22.63;;;14.10;;
71513;SDS011;59335;46.652;21.272;2023-03-23T01:34:55;23.95;;;14.75;;
71513;SDS011;59335;46.652;21.272;2023-03-23T01:37:57;24.20;;;14.45;;
71513;SDS011;59335;46.652;21.272;2023-03-23T01:40:59;25.23;;;14.30;;
71513;SDS011;59335;46.652;21.272;2023-03-23T01:47:16;23.60;;;13.73;;
71513;SDS011;59335;46.652;21.272;2023-03-23T01:50:26;23.98;;;14.13;;
71513;SDS011;59335;46.652;21.272;2023-03-23T01:53:38;24.02;;;13.93;;
71513;SDS011;59335;46.652;21.272;2023-03-23T01:56:47;24.05;;;14.90;;
71513;SDS011;59335;46.652;21.272;2023-03-23T01:59:56;24.25;;;14.20;;
71513;SDS011;59335;46.652;21.272;2023-03-23T02:03:15;21.50;;;14.23;;
71513;SDS011;59335;46.652;21.272;2023-03-23T02:06:18;23.90;;;13.93;;
71513;SDS011;59335;46.652;21.272;2023-03-23T02:09:40;23.40;;;14.05;;
71513;SDS011;59335;46.652;21.272;2023-03-23T02:12:43;22.67;;;13.90;;
71513;SDS011;59335;46.652;21.272;2023-03-23T02:16:04;21.48;;;13.48;;
71513;SDS011;59335;46.652;21.272;2023-03-23T02:19:24;23.20;;;15.13;;
71513;SDS011;59335;46.652;21.272;2023-03-23T02:22:51;24.75;;;15.13;;
71513;SDS011;59335;46.652;21.272;2023-03-23T02:29:32;22.40;;;14.13;;
71513;SDS011;59335;46.652;21.272;2023-03-23T02:35:50;23.37;;;14.20;;
71513;SDS011;59335;46.652;21.272;2023-03-23T02:38:59;21.63;;;14.27;;
71513;SDS011;59335;46.652;21.272;2023-03-23T02:42:07;23.55;;;14.10;;
71513;SDS011;59335;46.652;21.272;2023-03-23T02:45:13;20.38;;;13.90;;
71513;SDS011;59335;46.652;21.272;2023-03-23T02:48:17;23.08;;;14.10;;
71513;SDS011;59335;46.652;21.272;2023-03-23T02:51:21;22.30;;;14.10;;
71513;SDS011;59335;46.652;21.272;2023-03-23T02:54:25;24.35;;;14.43;;
71513;SDS011;59335;46.652;21.272;2023-03-23T02:57:29;23.45;;;13.60;;
71513;SDS011;59335;46.652;21.272;2023-03-23T03:00:34;24.08;;;15.60;;
71513;SDS011;59335;46.652;21.272;2023-03-23T03:03:36;23.40;;;13.93;;
71513;SDS011;59335;46.652;21.272;2023-03-23T03:07:01;22.93;;;14.00;;
71513;SDS011;59335;46.652;21.272;2023-03-23T03:19:57;22.23;;;13.55;;
71513;SDS011;59335;46.652;21.272;2023-03-23T03:23:03;22.53;;;13.70;;
71513;SDS011;59335;46.652;21.272;2023-03-23T03:26:06;22.02;;;13.57;;
71513;SDS011;59335;46.652;21.272;2023-03-23T03:29:20;21.20;;;13.25;;
71513;SDS011;59335;46.652;21.272;2023-03-23T03:32:29;19.77;;;12.95;;
71513;SDS011;59335;46.652;21.272;2023-03-23T03:35:36;21.35;;;13.15;;
71513;SDS011;59335;46.652;21.272;2023-03-23T03:38:43;21.07;;;13.30;;
71513;SDS011;59335;46.652;21.272;2023-03-23T03:41:49;22.08;;;13.02;;
71513;SDS011;59335;46.652;21.272;2023-03-23T03:44:51;22.45;;;14.00;;
71513;SDS011;59335;46.652;21.272;2023-03-23T03:47:52;20.70;;;13.40;;
71513;SDS011;59335;46.652;21.272;2023-03-23T03:50:54;21.60;;;14.10;;
71513;SDS011;59335;46.652;21.272;2023-03-23T03:53:59;21.07;;;13.90;;
71513;SDS011;59335;46.652;21.272;2023-03-23T03:57:01;19.40;;;13.23;;
71513;SDS011;59335;46.652;21.272;2023-03-23T04:00:25;19.80;;;13.07;;
71513;SDS011;59335;46.652;21.272;2023-03-23T04:03:27;19.90;;;13.35;;
71513;SDS011;59335;46.652;21.272;2023-03-23T04:06:49;21.88;;;13.27;;
71513;SDS011;59335;46.652;21.272;2023-03-23T04:09:51;19.43;;;12.93;;
71513;SDS011;59335;46.652;21.272;2023-03-23T04:12:55;20.80;;;13.07;;
71513;SDS011;59335;46.652;21.272;2023-03-23T04:16:15;20.25;;;12.70;;
71513;SDS011;59335;46.652;21.272;2023-03-23T04:19:19;20.75;;;12.80;;
71513;SDS011;59335;46.652;21.272;2023-03-23T04:22:21;21.27;;;12.68;;
71513;SDS011;59335;46.652;21.272;2023-03-23T04:25:33;20.47;;;13.37;;
71513;SDS011;59335;46.652;21.272;2023-03-23T04:28:39;21.05;;;12.82;;
71513;SDS011;59335;46.652;21.272;2023-03-23T04:32:00;20.45;;;12.45;;
71513;SDS011;59335;46.652;21.272;2023-03-23T04:35:14;22.15;;;12.88;;
71513;SDS011;59335;46.652;21.272;2023-03-23T04:38:22;19.20;;;12.73;;
71513;SDS011;59335;46.652;21.272;2023-03-23T04:41:32;19.67;;;12.43;;
71513;SDS011;59335;46.652;21.272;2023-03-23T04:45:06;19.48;;;12.98;;
71513;SDS011;59335;46.652;21.272;2023-03-23T04:48:14;20.75;;;12.48;;
71513;SDS011;59335;46.652;21.272;2023-03-23T04:51:28;19.80;;;12.30;;
71513;SDS011;59335;46.652;21.272;2023-03-23T04:54:39;20.63;;;12.98;;
71513;SDS011;59335;46.652;21.272;2023-03-23T04:57:41;20.27;;;12.30;;
71513;SDS011;59335;46.652;21.272;2023-03-23T05:01:01;19.88;;;12.85;;
71513;SDS011;59335;46.652;21.272;2023-03-23T05:04:04;19.90;;;12.68;;
71513;SDS011;59335;46.652;21.272;2023-03-23T05:07:08;18.67;;;11.75;;
71513;SDS011;59335;46.652;21.272;2023-03-23T05:10:16;18.92;;;12.45;;
71513;SDS011;59335;46.652;21.272;2023-03-23T05:13:20;18.90;;;12.97;;
71513;SDS011;59335;46.652;21.272;2023-03-23T05:16:26;19.80;;;13.10;;
71513;SDS011;59335;46.652;21.272;2023-03-23T05:19:30;18.58;;;11.73;;
71513;SDS011;59335;46.652;21.272;2023-03-23T05:22:35;20.08;;;12.77;;
71513;SDS011;59335;46.652;21.272;2023-03-23T05:25:39;18.83;;;12.02;;
71513;SDS011;59335;46.652;21.272;2023-03-23T05:28:54;18.27;;;12.40;;
71513;SDS011;59335;46.652;21.272;2023-03-23T05:32:11;17.75;;;11.82;;
71513;SDS011;59335;46.652;21.272;2023-03-23T05:35:14;18.13;;;12.02;;
71513;SDS011;59335;46.652;21.272;2023-03-23T05:38:16;19.90;;;12.23;;
71513;SDS011;59335;46.652;21.272;2023-03-23T05:41:19;18.17;;;11.82;;
71513;SDS011;59335;46.652;21.272;2023-03-23T05:44:22;19.00;;;12.60;;
71513;SDS011;59335;46.652;21.272;2023-03-23T05:47:27;18.42;;;12.50;;
71513;SDS011;59335;46.652;21.272;2023-03-23T05:50:32;17.80;;;12.05;;
71513;SDS011;59335;46.652;21.272;2023-03-23T05:53:34;19.73;;;12.07;;
71513;SDS011;59335;46.652;21.272;2023-03-23T05:56:36;18.48;;;12.18;;
71513;SDS011;59335;46.652;21.272;2023-03-23T05:59:58;19.60;;;12.13;;
71513;SDS011;59335;46.652;21.272;2023-03-23T06:03:01;17.77;;;11.70;;
71513;SDS011;59335;46.652;21.272;2023-03-23T06:06:10;19.50;;;12.30;;
71513;SDS011;59335;46.652;21.272;2023-03-23T06:09:26;17.15;;;12.20;;
71513;SDS011;59335;46.652;21.272;2023-03-23T06:13:00;18.77;;;12.05;;
71513;SDS011;59335;46.652;21.272;2023-03-23T06:16:10;16.90;;;11.23;;
71513;SDS011;59335;46.652;21.272;2023-03-23T06:19:35;16.05;;;10.98;;
71513;SDS011;59335;46.652;21.272;2023-03-23T06:22:57;16.10;;;11.05;;
71513;SDS011;59335;46.652;21.272;2023-03-23T06:26:06;17.08;;;11.60;;
71513;SDS011;59335;46.652;21.272;2023-03-23T06:29:11;18.33;;;11.68;;
71513;SDS011;59335;46.652;21.272;2023-03-23T06:32:17;18.77;;;12.33;;
71513;SDS011;59335;46.652;21.272;2023-03-23T06:35:19;20.58;;;11.82;;
71513;SDS011;59335;46.652;21.272;2023-03-23T06:38:27;16.42;;;10.85;;
71513;SDS011;59335;46.652;21.272;2023-03-23T06:41:31;17.20;;;11.23;;
71513;SDS011;59335;46.652;21.272;2023-03-23T06:44:33;17.00;;;11.07;;
71513;SDS011;59335;46.652;21.272;2023-03-23T06:47:34;15.93;;;10.70;;
71513;SDS011;59335;46.652;21.272;2023-03-23T06:50:37;18.17;;;10.77;;
71513;SDS011;59335;46.652;21.272;2023-03-23T06:53:40;16.65;;;10.73;;
71513;SDS011;59335;46.652;21.272;2023-03-23T06:56:46;16.10;;;10.15;;
71513;SDS011;59335;46.652;21.272;2023-03-23T06:59:48;21.65;;;10.32;;
71513;SDS011;59335;46.652;21.272;2023-03-23T07:02:50;15.00;;;10.00;;
71513;SDS011;59335;46.652;21.272;2023-03-23T07:05:54;17.15;;;10.38;;
71513;SDS011;59335;46.652;21.272;2023-03-23T07:09:00;16.67;;;10.00;;
71513;SDS011;59335;46.652;21.272;2023-03-23T07:12:03;16.85;;;9.95;;
71513;SDS011;59335;46.652;21.272;2023-03-23T07:15:14;17.48;;;10.07;;
71513;SDS011;59335;46.652;21.272;2023-03-23T07:18:21;16.13;;;9.67;;
71513;SDS011;59335;46.652;21.272;2023-03-23T07:21:25;15.50;;;9.60;;
71513;SDS011;59335;46.652;21.272;2023-03-23T07:24:29;16.17;;;9.05;;
71513;SDS011;59335;46.652;21.272;2023-03-23T07:27:51;14.25;;;9.88;;
71513;SDS011;59335;46.652;21.272;2023-03-23T07:30:53;13.48;;;9.20;;
71513;SDS011;59335;46.652;21.272;2023-03-23T07:33:57;14.57;;;10.10;;
71513;SDS011;59335;46.652;21.272;2023-03-23T07:37:08;15.93;;;10.13;;
71513;SDS011;59335;46.652;21.272;2023-03-23T07:40:11;13.07;;;9.68;;
71513;SDS011;59335;46.652;21.272;2023-03-23T07:43:20;13.15;;;9.65;;
71513;SDS011;59335;46.652;21.272;2023-03-23T07:46:42;14.95;;;9.13;;
71513;SDS011;59335;46.652;21.272;2023-03-23T07:49:53;15.67;;;10.20;;
71513;SDS011;59335;46.652;21.272;2023-03-23T07:53:02;14.60;;;10.23;;
71513;SDS011;59335;46.652;21.272;2023-03-23T07:56:06;13.95;;;10.07;;
71513;SDS011;59335;46.652;21.272;2023-03-23T07:59:35;13.85;;;10.48;;
71513;SDS011;59335;46.652;21.272;2023-03-23T08:03:27;13.85;;;10.30;;
71513;SDS011;59335;46.652;21.272;2023-03-23T08:06:56;13.00;;;8.23;;
71513;SDS011;59335;46.652;21.272;2023-03-23T08:10:13;12.93;;;8.35;;
71513;SDS011;59335;46.652;21.272;2023-03-23T08:13:35;11.63;;;7.47;;
71513;SDS011;59335;46.652;21.272;2023-03-23T08:17:05;11.52;;;8.05;;
71513;SDS011;59335;46.652;21.272;2023-03-23T08:20:08;15.27;;;9.15;;
71513;SDS011;59335;46.652;21.272;2023-03-23T08:23:42;12.73;;;7.93;;
71513;SDS011;59335;46.652;21.272;2023-03-23T08:27:10;11.75;;;7.85;;
71513;SDS011;59335;46.652;21.272;2023-03-23T08:30:31;10.13;;;7.03;;
71513;SDS011;59335;46.652;21.272;2023-03-23T08:33:57;11.75;;;8.05;;
71513;SDS011;59335;46.652;21.272;2023-03-23T08:37:11;13.40;;;7.60;;
71513;SDS011;59335;46.652;21.272;2023-03-23T08:40:32;10.03;;;7.10;;
71513;SDS011;59335;46.652;21.272;2023-03-23T08:43:49;15.77;;;8.55;;
71513;SDS011;59335;46.652;21.272;2023-03-23T08:47:12;12.45;;;7.78;;
71513;SDS011;59335;46.652;21.272;2023-03-23T08:50:18;13.30;;;8.35;;
71513;SDS011;59335;46.652;21.272;2023-03-23T08:53:42;12.52;;;8.55;;
71513;SDS011;59335;46.652;21.272;2023-03-23T08:57:03;12.43;;;7.33;;
71513;SDS011;59335;46.652;21.272;2023-03-23T09:00:44;14.57;;;8.30;;
71513;SDS011;59335;46.652;21.272;2023-03-23T09:04:18;13.65;;;8.20;;
71513;SDS011;59335;46.652;21.272;2023-03-23T09:07:30;14.77;;;7.78;;
71513;SDS011;59335;46.652;21.272;2023-03-23T09:10:32;13.52;;;7.50;;
71513;SDS011;59335;46.652;21.272;2023-03-23T09:13:38;12.07;;;7.80;;
71513;SDS011;59335;46.652;21.272;2023-03-23T09:16:41;10.07;;;6.93;;
71513;SDS011;59335;46.652;21.272;2023-03-23T09:19:43;12.93;;;7.07;;
71513;SDS011;59335;46.652;21.272;2023-03-23T09:22:46;11.07;;;7.38;;
71513;SDS011;59335;46.652;21.272;2023-03-23T09:25:49;12.68;;;6.97;;
71513;SDS011;59335;46.652;21.272;2023-03-23T09:28:52;11.10;;;7.07;;
71513;SDS011;59335;46.652;21.272;2023-03-23T09:31:54;10.30;;;6.45;;
71513;SDS011;59335;46.652;21.272;2023-03-23T09:34:58;9.88;;;6.53;;
71513;SDS011;59335;46.652;21.272;2023-03-23T09:38:01;12.68;;;6.70;;
71513;SDS011;59335;46.652;21.272;2023-03-23T09:41:10;11.20;;;6.45;;
71513;SDS011;59335;46.652;21.272;2023-03-23T09:54:59;12.75;;;6.93;;
71513;SDS011;59335;46.652;21.272;2023-03-23T09:58:45;10.23;;;6.60;;
71513;SDS011;59335;46.652;21.272;2023-03-23T10:01:54;11.70;;;6.80;;
71513;SDS011;59335;46.652;21.272;2023-03-23T10:08:30;10.73;;;6.35;;
71513;SDS011;59335;46.652;21.272;2023-03-23T10:11:44;11.63;;;5.80;;
71513;SDS011;59335;46.652;21.272;2023-03-23T10:18:18;11.83;;;5.73;;
71513;SDS011;59335;46.652;21.272;2023-03-23T10:21:44;12.32;;;5.72;;
71513;SDS011;59335;46.652;21.272;2023-03-23T10:25:03;10.02;;;6.05;;
71513;SDS011;59335;46.652;21.272;2023-03-23T10:28:21;11.93;;;5.65;;
71513;SDS011;59335;46.652;21.272;2023-03-23T10:31:34;13.90;;;5.70;;
71513;SDS011;59335;46.652;21.272;2023-03-23T10:38:02;8.70;;;5.25;;
71513;SDS011;59335;46.652;21.272;2023-03-23T10:41:12;11.73;;;5.57;;
71513;SDS011;59335;46.652;21.272;2023-03-23T10:44:20;8.45;;;5.40;;
71513;SDS011;59335;46.652;21.272;2023-03-23T10:47:23;10.73;;;5.50;;
71513;SDS011;59335;46.652;21.272;2023-03-23T10:50:27;8.87;;;5.33;;
71513;SDS011;59335;46.652;21.272;2023-03-23T10:53:33;13.82;;;5.50;;
71513;SDS011;59335;46.652;21.272;2023-03-23T10:56:41;10.55;;;5.25;;
71513;SDS011;59335;46.652;21.272;2023-03-23T10:59:46;9.40;;;4.97;;
71513;SDS011;59335;46.652;21.272;2023-03-23T11:06:11;12.83;;;4.50;;
71513;SDS011;59335;46.652;21.272;2023-03-23T11:09:21;9.48;;;4.30;;
71513;SDS011;59335;46.652;21.272;2023-03-23T11:14:27;10.48;;;4.60;;
71513;SDS011;59335;46.652;21.272;2023-03-23T11:18:04;9.13;;;4.57;;
71513;SDS011;59335;46.652;21.272;2023-03-23T11:21:12;13.50;;;4.72;;
71513;SDS011;59335;46.652;21.272;2023-03-23T11:24:15;13.30;;;4.30;;
71513;SDS011;59335;46.652;21.272;2023-03-23T11:27:23;10.98;;;4.72;;
71513;SDS011;59335;46.652;21.272;2023-03-23T11:30:29;9.02;;;4.55;;
71513;SDS011;59335;46.652;21.272;2023-03-23T11:33:38;13.48;;;4.38;;
71513;SDS011;59335;46.652;21.272;2023-03-23T11:36:57;9.00;;;4.60;;
71513;SDS011;59335;46.652;21.272;2023-03-23T11:43:11;9.75;;;4.18;;
71513;SDS011;59335;46.652;21.272;2023-03-23T11:46:29;9.27;;;4.32;;
71513;SDS011;59335;46.652;21.272;2023-03-23T11:49:57;8.65;;;4.30;;
71513;SDS011;59335;46.652;21.272;2023-03-23T11:56:32;8.03;;;4.00;;
71513;SDS011;59335;46.652;21.272;2023-03-23T11:59:39;8.40;;;4.30;;
71513;SDS011;59335;46.652;21.272;2023-03-23T12:02:56;10.32;;;3.80;;
71513;SDS011;59335;46.652;21.272;2023-03-23T12:11:52;10.32;;;3.92;;
71513;SDS011;59335;46.652;21.272;2023-03-23T12:29:05;6.75;;;3.30;;
71513;SDS011;59335;46.652;21.272;2023-03-23T12:39:48;6.90;;;3.60;;
71513;SDS011;59335;46.652;21.272;2023-03-23T12:43:15;9.90;;;3.50;;
71513;SDS011;59335;46.652;21.272;2023-03-23T12:49:59;7.27;;;3.50;;
71513;SDS011;59335;46.652;21.272;2023-03-23T12:53:20;6.95;;;3.42;;
71513;SDS011;59335;46.652;21.272;2023-03-23T12:59:53;9.63;;;3.72;;
71513;SDS011;59335;46.652;21.272;2023-03-23T13:03:11;7.50;;;3.50;;
71513;SDS011;59335;46.652;21.272;2023-03-23T13:09:39;11.25;;;3.53;;
71513;SDS011;59335;46.652;21.272;2023-03-23T13:12:44;8.63;;;3.13;;
71513;SDS011;59335;46.652;21.272;2023-03-23T13:15:54;8.63;;;3.40;;
71513;SDS011;59335;46.652;21.272;2023-03-23T13:22:36;6.47;;;3.73;;
71513;SDS011;59335;46.652;21.272;2023-03-23T13:28:59;8.27;;;3.05;;
71513;SDS011;59335;46.652;21.272;2023-03-23T13:32:19;8.15;;;3.10;;
71513;SDS011;59335;46.652;21.272;2023-03-23T13:36:23;7.10;;;3.10;;
71513;SDS011;59335;46.652;21.272;2023-03-23T13:39:47;6.63;;;3.10;;
71513;SDS011;59335;46.652;21.272;2023-03-23T13:42:55;6.28;;;3.30;;
71513;SDS011;59335;46.652;21.272;2023-03-23T13:49:20;6.63;;;3.30;;
71513;SDS011;59335;46.652;21.272;2023-03-23T13:55:48;8.60;;;3.30;;
71513;SDS011;59335;46.652;21.272;2023-03-23T13:58:52;6.95;;;3.35;;
71513;SDS011;59335;46.652;21.272;2023-03-23T14:02:27;6.75;;;3.20;;
71513;SDS011;59335;46.652;21.272;2023-03-23T14:05:37;9.48;;;3.08;;
71513;SDS011;59335;46.652;21.272;2023-03-23T14:08:43;7.72;;;3.75;;
71513;SDS011;59335;46.652;21.272;2023-03-23T14:11:49;6.40;;;3.43;;
71513;SDS011;59335;46.652;21.272;2023-03-23T14:14:58;7.80;;;4.95;;
71513;SDS011;59335;46.652;21.272;2023-03-23T14:18:05;11.60;;;4.60;;
71513;SDS011;59335;46.652;21.272;2023-03-23T14:21:21;9.30;;;3.80;;
71513;SDS011;59335;46.652;21.272;2023-03-23T14:24:39;12.85;;;3.78;;
71513;SDS011;59335;46.652;21.272;2023-03-23T14:27:41;10.30;;;4.17;;
71513;SDS011;59335;46.652;21.272;2023-03-23T14:30:44;9.80;;;4.18;;
71513;SDS011;59335;46.652;21.272;2023-03-23T14:33:47;8.20;;;3.65;;
71513;SDS011;59335;46.652;21.272;2023-03-23T14:36:51;9.20;;;3.92;;
71513;SDS011;59335;46.652;21.272;2023-03-23T14:39:54;12.13;;;3.83;;
71513;SDS011;59335;46.652;21.272;2023-03-23T14:42:57;10.10;;;3.50;;
71513;SDS011;59335;46.652;21.272;2023-03-23T14:46:01;14.43;;;3.63;;
71513;SDS011;59335;46.652;21.272;2023-03-23T14:49:06;13.50;;;4.32;;
71513;SDS011;59335;46.652;21.272;2023-03-23T14:52:09;14.68;;;3.60;;
71513;SDS011;59335;46.652;21.272;2023-03-23T14:55:18;9.25;;;3.78;;
71513;SDS011;59335;46.652;21.272;2023-03-23T14:58:22;12.20;;;3.53;;
71513;SDS011;59335;46.652;21.272;2023-03-23T15:01:28;11.55;;;4.55;;
71513;SDS011;59335;46.652;21.272;2023-03-23T15:04:32;10.30;;;3.58;;
71513;SDS011;59335;46.652;21.272;2023-03-23T15:07:34;13.05;;;4.10;;
71513;SDS011;59335;46.652;21.272;2023-03-23T15:10:37;13.27;;;4.00;;
71513;SDS011;59335;46.652;21.272;2023-03-23T15:13:43;13.40;;;4.03;;
71513;SDS011;59335;46.652;21.272;2023-03-23T15:16:54;11.73;;;4.03;;
71513;SDS011;59335;46.652;21.272;2023-03-23T15:20:06;13.10;;;3.97;;
71513;SDS011;59335;46.652;21.272;2023-03-23T15:23:16;12.30;;;4.18;;
71513;SDS011;59335;46.652;21.272;2023-03-23T15:29:33;12.13;;;4.03;;
71513;SDS011;59335;46.652;21.272;2023-03-23T15:32:38;9.95;;;3.78;;
71513;SDS011;59335;46.652;21.272;2023-03-23T15:35:44;13.07;;;3.83;;
71513;SDS011;59335;46.652;21.272;2023-03-23T15:38:48;14.23;;;3.55;;
71513;SDS011;59335;46.652;21.272;2023-03-23T15:41:50;9.43;;;4.05;;
71513;SDS011;59335;46.652;21.272;2023-03-23T15:45:12;11.67;;;3.60;;
71513;SDS011;59335;46.652;21.272;2023-03-23T15:48:22;10.27;;;3.60;;
71513;SDS011;59335;46.652;21.272;2023-03-23T15:51:26;9.52;;;3.83;;
71513;SDS011;59335;46.652;21.272;2023-03-23T15:54:30;10.02;;;3.50;;
71513;SDS011;59335;46.652;21.272;2023-03-23T15:57:33;11.02;;;4.00;;
71513;SDS011;59335;46.652;21.272;2023-03-23T16:00:35;10.80;;;3.57;;
71513;SDS011;59335;46.652;21.272;2023-03-23T16:03:48;15.93;;;3.78;;
71513;SDS011;59335;46.652;21.272;2023-03-23T16:06:54;17.27;;;4.38;;
71513;SDS011;59335;46.652;21.272;2023-03-23T16:09:58;18.65;;;3.95;;
71513;SDS011;59335;46.652;21.272;2023-03-23T16:13:01;17.35;;;3.72;;
71513;SDS011;59335;46.652;21.272;2023-03-23T16:16:04;11.87;;;3.50;;
71513;SDS011;59335;46.652;21.272;2023-03-23T16:19:12;11.43;;;3.92;;
71513;SDS011;59335;46.652;21.272;2023-03-23T16:22:17;12.00;;;3.67;;
71513;SDS011;59335;46.652;21.272;2023-03-23T16:25:20;16.38;;;4.00;;
71513;SDS011;59335;46.652;21.272;2023-03-23T16:28:23;9.40;;;3.28;;
71513;SDS011;59335;46.652;21.272;2023-03-23T16:31:25;11.80;;;4.10;;
71513;SDS011;59335;46.652;21.272;2023-03-23T16:34:28;11.73;;;4.18;;
71513;SDS011;59335;46.652;21.272;2023-03-23T16:37:34;11.60;;;3.83;;
71513;SDS011;59335;46.652;21.272;2023-03-23T16:40:37;14.35;;;4.57;;
71513;SDS011;59335;46.652;21.272;2023-03-23T16:43:40;11.70;;;3.95;;
71513;SDS011;59335;46.652;21.272;2023-03-23T16:46:42;10.00;;;4.10;;
71513;SDS011;59335;46.652;21.272;2023-03-23T16:49:45;13.50;;;3.70;;
71513;SDS011;59335;46.652;21.272;2023-03-23T16:52:55;11.25;;;3.78;;
71513;SDS011;59335;46.652;21.272;2023-03-23T16:55:58;12.15;;;4.28;;
71513;SDS011;59335;46.652;21.272;2023-03-23T16:59:01;12.32;;;3.70;;
71513;SDS011;59335;46.652;21.272;2023-03-23T17:02:03;15.90;;;4.00;;
71513;SDS011;59335;46.652;21.272;2023-03-23T17:05:06;14.05;;;3.58;;
71513;SDS011;59335;46.652;21.272;2023-03-23T17:08:11;11.77;;;3.78;;
71513;SDS011;59335;46.652;21.272;2023-03-23T17:11:13;15.68;;;3.40;;
71513;SDS011;59335;46.652;21.272;2023-03-23T17:14:17;13.13;;;3.67;;
71513;SDS011;59335;46.652;21.272;2023-03-23T17:17:21;10.87;;;3.37;;
71513;SDS011;59335;46.652;21.272;2023-03-23T17:20:25;11.95;;;3.30;;
71513;SDS011;59335;46.652;21.272;2023-03-23T17:23:28;9.57;;;3.83;;
71513;SDS011;59335;46.652;21.272;2023-03-23T17:26:31;9.93;;;3.20;;
71513;SDS011;59335;46.652;21.272;2023-03-23T17:29:34;11.40;;;3.90;;
71513;SDS011;59335;46.652;21.272;2023-03-23T17:32:38;13.13;;;3.77;;
71513;SDS011;59335;46.652;21.272;2023-03-23T17:35:44;9.70;;;3.60;;
71513;SDS011;59335;46.652;21.272;2023-03-23T17:38:49;12.25;;;3.90;;
71513;SDS011;59335;46.652;21.272;2023-03-23T17:41:52;7.45;;;3.65;;
71513;SDS011;59335;46.652;21.272;2023-03-23T17:44:55;11.30;;;3.63;;
71513;SDS011;59335;46.652;21.272;2023-03-23T17:47:58;14.23;;;3.67;;
71513;SDS011;59335;46.652;21.272;2023-03-23T17:51:01;13.30;;;3.90;;
71513;SDS011;59335;46.652;21.272;2023-03-23T17:54:07;8.93;;;3.42;;
71513;SDS011;59335;46.652;21.272;2023-03-23T17:57:10;11.15;;;3.22;;
71513;SDS011;59335;46.652;21.272;2023-03-23T18:00:13;11.35;;;3.90;;
71513;SDS011;59335;46.652;21.272;2023-03-23T18:03:17;9.50;;;3.60;;
71513;SDS011;59335;46.652;21.272;2023-03-23T18:06:22;11.82;;;4.45;;
71513;SDS011;59335;46.652;21.272;2023-03-23T18:09:25;9.50;;;3.78;;
71513;SDS011;59335;46.652;21.272;2023-03-23T18:12:30;9.48;;;3.78;;
71513;SDS011;59335;46.652;21.272;2023-03-23T18:15:33;9.27;;;3.95;;
71513;SDS011;59335;46.652;21.272;2023-03-23T18:18:39;10.20;;;4.30;;
71513;SDS011;59335;46.652;21.272;2023-03-23T18:21:43;12.05;;;3.80;;
71513;SDS011;59335;46.652;21.272;2023-03-23T18:24:47;7.03;;;3.70;;
71513;SDS011;59335;46.652;21.272;2023-03-23T18:27:51;8.40;;;3.90;;
71513;SDS011;59335;46.652;21.272;2023-03-23T18:31:01;11.15;;;3.97;;
71513;SDS011;59335;46.652;21.272;2023-03-23T18:34:12;11.03;;;4.10;;
71513;SDS011;59335;46.652;21.272;2023-03-23T18:37:16;10.05;;;4.00;;
71513;SDS011;59335;46.652;21.272;2023-03-23T18:40:21;10.45;;;4.25;;
71513;SDS011;59335;46.652;21.272;2023-03-23T18:43:25;10.57;;;3.90;;
71513;SDS011;59335;46.652;21.272;2023-03-23T18:46:29;8.85;;;3.80;;
71513;SDS011;59335;46.652;21.272;2023-03-23T18:49:33;10.67;;;4.10;;
71513;SDS011;59335;46.652;21.272;2023-03-23T18:52:36;10.88;;;4.20;;
71513;SDS011;59335;46.652;21.272;2023-03-23T18:55:39;8.00;;;3.90;;
71513;SDS011;59335;46.652;21.272;2023-03-23T18:58:45;10.90;;;3.80;;
71513;SDS011;59335;46.652;21.272;2023-03-23T19:01:50;7.32;;;3.92;;
71513;SDS011;59335;46.652;21.272;2023-03-23T19:04:54;11.03;;;3.93;;
71513;SDS011;59335;46.652;21.272;2023-03-23T19:07:59;12.13;;;4.18;;
71513;SDS011;59335;46.652;21.272;2023-03-23T19:11:03;12.38;;;4.07;;
71513;SDS011;59335;46.652;21.272;2023-03-23T19:14:09;9.40;;;4.03;;
71513;SDS011;59335;46.652;21.272;2023-03-23T19:17:13;8.27;;;3.88;;
71513;SDS011;59335;46.652;21.272;2023-03-23T19:20:18;8.17;;;3.87;;
71513;SDS011;59335;46.652;21.272;2023-03-23T19:23:42;7.90;;;3.83;;
71513;SDS011;59335;46.652;21.272;2023-03-23T19:26:45;11.40;;;3.90;;
71513;SDS011;59335;46.652;21.272;2023-03-23T19:29:53;10.13;;;3.90;;
71513;SDS011;59335;46.652;21.272;2023-03-23T19:32:58;11.15;;;3.90;;
71513;SDS011;59335;46.652;21.272;2023-03-23T19:36:02;9.77;;;4.10;;
71513;SDS011;59335;46.652;21.272;2023-03-23T19:39:14;10.25;;;4.55;;
71513;SDS011;59335;46.652;21.272;2023-03-23T19:42:19;10.77;;;4.28;;
71513;SDS011;59335;46.652;21.272;2023-03-23T19:45:23;9.30;;;4.43;;
71513;SDS011;59335;46.652;21.272;2023-03-23T19:48:28;9.57;;;4.18;;
71513;SDS011;59335;46.652;21.272;2023-03-23T19:51:33;11.83;;;4.53;;
71513;SDS011;59335;46.652;21.272;2023-03-23T19:54:39;9.88;;;4.82;;
71513;SDS011;59335;46.652;21.272;2023-03-23T19:57:43;9.10;;;4.75;;
71513;SDS011;59335;46.652;21.272;2023-03-23T20:00:47;8.73;;;4.45;;
71513;SDS011;59335;46.652;21.272;2023-03-23T20:03:52;11.27;;;5.20;;